createdAt,value
2023-03-02T00:01:49.122Z,30.17
2023-03-02T00:04:23.765Z,28.47
2023-03-02T00:06:59.702Z,28.73
2023-03-02T00:09:33.604Z,32.03
2023-03-02T00:12:05.110Z,29.17
2023-03-02T00:14:35.547Z,29.20
2023-03-02T00:17:05.801Z,27.27
2023-03-02T00:19:36.613Z,29.20
2023-03-02T00:22:08.203Z,30.50
2023-03-02T00:24:45.139Z,28.13
2023-03-02T00:27:15.553Z,30.07
2023-03-02T00:29:46.087Z,34.90
2023-03-02T00:32:18.281Z,26.45
2023-03-02T00:34:48.615Z,29.90
2023-03-02T00:37:19.362Z,27.93
2023-03-02T00:39:55.040Z,28.45
2023-03-02T00:42:25.918Z,29.90
2023-03-02T00:44:59.396Z,29.55
2023-03-02T00:47:29.737Z,28.57
2023-03-02T00:50:00.112Z,29.53
2023-03-02T00:52:32.043Z,29.07
2023-03-02T00:55:05.258Z,31.23
2023-03-02T00:57:35.962Z,35.80
2023-03-02T01:00:08.685Z,27.67
2023-03-02T01:02:44.551Z,30.03
2023-03-02T01:05:19.428Z,26.80
2023-03-02T01:07:51.101Z,28.40
2023-03-02T01:10:24.199Z,27.23
2023-03-02T01:12:55.914Z,28.20
2023-03-02T01:15:26.657Z,28.10
2023-03-02T01:17:56.999Z,27.30
2023-03-02T01:20:27.314Z,29.73
2023-03-02T01:22:57.724Z,30.70
2023-03-02T01:25:30.883Z,29.13
2023-03-02T01:28:01.206Z,30.20
2023-03-02T01:30:34.388Z,32.97
2023-03-02T01:33:06.914Z,30.77
2023-03-02T01:35:37.360Z,31.57
2023-03-02T01:38:07.897Z,26.63
2023-03-02T01:44:46.756Z,28.63
2023-03-02T01:47:22.562Z,31.70
2023-03-02T01:50:21.041Z,29.93
2023-03-02T01:52:53.412Z,29.40
2023-03-02T01:55:29.193Z,28.47
2023-03-02T01:58:01.911Z,30.63
2023-03-02T02:00:44.054Z,30.00
2023-03-02T02:03:21.126Z,29.93
2023-03-02T02:06:03.498Z,31.23
2023-03-02T02:08:36.587Z,36.57
2023-03-02T02:11:07.455Z,28.57
2023-03-02T02:13:38.049Z,32.63
2023-03-02T02:16:14.057Z,32.72
2023-03-02T02:18:46.297Z,32.43
2023-03-02T02:21:17.621Z,33.43
2023-03-02T02:24:07.126Z,34.00
2023-03-02T02:26:44.881Z,32.73
2023-03-02T02:29:22.998Z,31.77
2023-03-02T02:32:01.998Z,29.73
2023-03-02T02:34:39.014Z,38.37
2023-03-02T02:37:14.175Z,31.40
2023-03-02T02:39:49.573Z,30.17
2023-03-02T02:42:30.603Z,32.60
2023-03-02T02:45:06.556Z,31.60
2023-03-02T02:47:37.545Z,33.83
2023-03-02T02:50:10.198Z,31.42
2023-03-02T02:52:41.773Z,29.70
2023-03-02T02:55:19.147Z,34.27
2023-03-02T02:57:57.588Z,40.40
2023-03-02T03:00:29.199Z,34.07
2023-03-02T03:03:08.088Z,35.40
2023-03-02T03:05:38.436Z,33.00
2023-03-02T03:08:14.052Z,30.83
2023-03-02T03:10:46.357Z,31.80
2023-03-02T03:13:20.264Z,32.50
2023-03-02T03:15:53.538Z,30.40
2023-03-02T03:18:26.868Z,36.93
2023-03-02T03:20:57.358Z,37.50
2023-03-02T03:23:30.701Z,33.23
2023-03-02T03:26:01.215Z,38.00
2023-03-02T03:28:37.150Z,32.17
2023-03-02T03:31:08.316Z,29.40
2023-03-02T03:33:38.853Z,35.15
2023-03-02T03:36:12.938Z,33.38
2023-03-02T03:38:43.421Z,35.37
2023-03-02T03:41:14.308Z,33.95
2023-03-02T03:43:47.680Z,31.48
2023-03-02T03:46:20.401Z,33.97
2023-03-02T03:48:51.326Z,36.80
2023-03-02T03:51:22.128Z,33.42
2023-03-02T03:54:00.386Z,34.65
2023-03-02T03:56:39.181Z,33.37
2023-03-02T03:59:14.768Z,32.47
2023-03-02T04:01:54.087Z,34.08
2023-03-02T04:04:29.002Z,36.10
2023-03-02T04:06:59.979Z,34.17
2023-03-02T04:09:32.324Z,36.78
2023-03-02T04:12:03.109Z,38.70
2023-03-02T04:14:36.370Z,35.75
2023-03-02T04:17:07.956Z,33.30
2023-03-02T04:19:41.786Z,36.20
2023-03-02T04:22:13.244Z,34.50
2023-03-02T04:24:43.640Z,36.53
2023-03-02T04:27:14.421Z,34.75
2023-03-02T04:29:48.873Z,35.78
2023-03-02T04:32:19.242Z,36.63
2023-03-02T04:34:55.283Z,35.43
2023-03-02T04:37:26.009Z,35.88
2023-03-02T04:39:56.415Z,34.50
2023-03-02T04:42:26.726Z,35.20
2023-03-02T04:44:59.954Z,34.37
2023-03-02T04:47:30.330Z,33.87
2023-03-02T04:50:00.652Z,41.33
2023-03-02T04:52:30.975Z,37.00
2023-03-02T04:55:01.343Z,32.13
2023-03-02T04:57:31.750Z,33.53
2023-03-02T05:00:06.148Z,32.67
2023-03-02T05:02:36.580Z,35.13
2023-03-02T05:05:07.847Z,36.17
2023-03-02T05:10:09.899Z,31.57
2023-03-02T05:12:54.815Z,35.57
2023-03-02T05:15:30.601Z,32.60
2023-03-02T05:18:01.266Z,33.57
2023-03-02T05:20:32.660Z,35.10
2023-03-02T05:25:39.332Z,34.87
2023-03-02T05:28:09.688Z,34.03
2023-03-02T05:30:42.612Z,35.63
2023-03-02T05:33:12.912Z,33.97
2023-03-02T05:35:43.686Z,32.30
2023-03-02T05:38:14.927Z,34.55
2023-03-02T05:40:45.395Z,39.95
2023-03-02T05:43:20.805Z,36.15
2023-03-02T05:45:55.388Z,32.03
2023-03-02T05:48:25.775Z,33.17
2023-03-02T05:50:56.110Z,38.63
2023-03-02T05:53:26.760Z,34.90
2023-03-02T05:55:57.732Z,41.08
2023-03-02T05:58:28.108Z,38.80
2023-03-02T06:01:01.178Z,40.93
2023-03-02T06:03:31.864Z,39.40
2023-03-02T06:06:02.329Z,40.67
2023-03-02T06:08:32.612Z,36.43
2023-03-02T06:11:02.941Z,40.13
2023-03-02T06:13:33.217Z,38.97
2023-03-02T06:16:10.262Z,36.83
2023-03-02T06:18:41.707Z,35.30
2023-03-02T06:21:12.644Z,39.80
2023-03-02T06:23:43.190Z,40.30
2023-03-02T06:26:15.528Z,37.65
2023-03-02T06:28:52.542Z,38.23
2023-03-02T06:31:26.597Z,37.23
2023-03-02T06:33:56.977Z,36.33
2023-03-02T06:36:27.442Z,37.70
2023-03-02T06:38:58.134Z,37.80
2023-03-02T06:41:28.634Z,37.10
2023-03-02T06:43:59.018Z,37.63
2023-03-02T06:46:32.167Z,28.67
2023-03-02T06:49:02.765Z,37.67
2023-03-02T06:51:33.135Z,38.87
2023-03-02T06:54:03.634Z,41.43
2023-03-02T06:56:34.305Z,39.13
2023-03-02T06:59:04.962Z,38.20
2023-03-02T07:01:38.205Z,36.03
2023-03-02T07:04:08.712Z,37.90
2023-03-02T07:06:39.050Z,36.00
2023-03-02T07:09:09.298Z,38.33
2023-03-02T07:11:39.610Z,35.30
2023-03-02T07:14:10.180Z,37.60
2023-03-02T07:16:43.310Z,35.90
2023-03-02T07:19:15.854Z,35.03
2023-03-02T07:21:46.159Z,34.33
2023-03-02T07:24:16.440Z,35.77
2023-03-02T07:26:47.101Z,38.07
2023-03-02T07:29:17.550Z,35.20
2023-03-02T07:31:57.037Z,34.17
2023-03-02T07:34:27.903Z,36.93
2023-03-02T07:36:58.280Z,36.67
2023-03-02T07:39:28.746Z,38.07
2023-03-02T07:42:03.083Z,33.07
2023-03-02T07:44:33.787Z,36.13
2023-03-02T07:47:07.193Z,37.70
2023-03-02T07:49:38.193Z,39.22
2023-03-02T07:52:09.028Z,34.15
2023-03-02T07:54:39.882Z,36.38
2023-03-02T07:57:10.340Z,39.00
2023-03-02T07:59:40.728Z,35.05
2023-03-02T08:02:16.182Z,33.25
2023-03-02T08:04:46.878Z,32.65
2023-03-02T08:07:17.409Z,33.58
2023-03-02T08:09:48.138Z,34.55
2023-03-02T08:12:18.553Z,33.75
2023-03-02T08:14:50.961Z,32.88
2023-03-02T08:17:24.330Z,32.65
2023-03-02T08:19:54.750Z,33.00
2023-03-02T08:22:25.345Z,29.95
2023-03-02T08:24:55.728Z,28.60
2023-03-02T08:27:26.348Z,32.05
2023-03-02T08:29:57.199Z,27.95
2023-03-02T08:35:00.415Z,28.42
2023-03-02T08:37:30.857Z,25.63
2023-03-02T08:40:01.194Z,25.45
2023-03-02T08:42:31.605Z,27.85
2023-03-02T08:45:01.987Z,28.02
2023-03-02T08:47:36.073Z,22.75
2023-03-02T08:50:06.739Z,30.17
2023-03-02T08:52:37.506Z,27.20
2023-03-02T08:55:10.442Z,26.73
2023-03-02T08:57:41.757Z,24.48
2023-03-02T09:00:16.342Z,23.88
2023-03-02T09:02:49.363Z,23.20
2023-03-02T09:05:20.005Z,23.38
2023-03-02T09:10:20.984Z,23.70
2023-03-02T09:12:51.328Z,22.42
2023-03-02T09:15:21.828Z,18.02
2023-03-02T09:20:25.032Z,20.33
2023-03-02T09:22:55.428Z,20.02
2023-03-02T09:25:25.790Z,18.05
2023-03-02T09:27:56.180Z,19.05
2023-03-02T09:30:26.631Z,17.52
2023-03-02T09:32:59.716Z,18.52
2023-03-02T09:35:30.190Z,20.60
2023-03-02T09:38:00.782Z,18.98
2023-03-02T09:43:25.416Z,19.60
2023-03-02T09:46:09.846Z,18.67
2023-03-02T09:48:55.925Z,18.50
2023-03-02T09:51:42.952Z,18.38
2023-03-02T09:54:16.084Z,19.63
2023-03-02T09:56:50.560Z,17.85
2023-03-02T09:59:30.160Z,17.63
2023-03-02T10:02:07.179Z,18.45
2023-03-02T10:04:49.363Z,21.10
2023-03-02T10:07:27.423Z,21.23
2023-03-02T10:10:07.904Z,18.85
2023-03-02T10:15:32.566Z,20.23
2023-03-02T10:18:11.048Z,22.25
2023-03-02T10:20:51.749Z,21.08
2023-03-02T10:23:45.904Z,20.73
2023-03-02T10:26:40.549Z,22.35
2023-03-02T10:29:46.807Z,21.95
2023-03-02T10:32:25.838Z,22.05
2023-03-02T10:34:57.453Z,23.35
2023-03-02T10:37:33.857Z,19.10
2023-03-02T10:40:04.289Z,20.55
2023-03-02T10:42:40.493Z,21.63
2023-03-02T10:45:28.602Z,21.70
2023-03-02T10:48:06.689Z,20.00
2023-03-02T10:50:37.906Z,20.40
2023-03-02T10:53:21.236Z,18.95
2023-03-02T10:55:54.611Z,21.52
2023-03-02T10:58:28.801Z,20.42
2023-03-02T11:01:02.155Z,19.48
2023-03-02T11:03:34.135Z,19.90
2023-03-02T11:06:22.608Z,23.17
2023-03-02T11:09:06.662Z,22.05
2023-03-02T11:11:38.163Z,23.35
2023-03-02T11:14:17.509Z,25.42
2023-03-02T11:16:48.057Z,23.38
2023-03-02T11:22:03.539Z,22.20
2023-03-02T11:24:44.051Z,23.02
2023-03-02T11:27:22.834Z,22.27
2023-03-02T11:29:59.495Z,20.02
2023-03-02T11:32:39.604Z,19.63
2023-03-02T11:35:17.249Z,21.92
2023-03-02T11:37:53.481Z,25.63
2023-03-02T11:40:37.086Z,23.58
2023-03-02T11:43:07.689Z,23.98
2023-03-02T11:45:42.021Z,22.25
2023-03-02T11:48:22.492Z,19.60
2023-03-02T11:51:00.412Z,24.20
2023-03-02T11:53:36.494Z,21.08
2023-03-02T11:56:10.169Z,19.30
2023-03-02T11:58:41.804Z,19.90
2023-03-02T12:01:20.643Z,18.67
2023-03-02T12:03:51.034Z,19.83
2023-03-02T12:06:45.395Z,21.88
2023-03-02T12:09:39.580Z,22.52
2023-03-02T12:12:39.038Z,22.48
2023-03-02T12:15:37.897Z,19.98
2023-03-02T12:18:46.045Z,22.70
2023-03-02T12:21:20.394Z,19.13
2023-03-02T12:24:06.464Z,21.45
2023-03-02T12:26:40.387Z,24.15
2023-03-02T12:29:28.705Z,18.90
2023-03-02T12:32:00.312Z,19.42
2023-03-02T12:34:39.219Z,18.27
2023-03-02T12:37:21.977Z,18.33
2023-03-02T12:40:36.258Z,19.20
2023-03-02T12:43:24.098Z,21.38
2023-03-02T12:46:28.506Z,20.15
2023-03-02T12:49:17.270Z,22.10
2023-03-02T12:51:54.491Z,20.53
2023-03-02T12:54:28.355Z,20.48
2023-03-02T12:57:15.412Z,19.00
2023-03-02T12:59:47.270Z,20.90
2023-03-02T13:02:23.232Z,21.60
2023-03-02T13:04:58.719Z,21.75
2023-03-02T13:07:33.448Z,20.13
2023-03-02T13:10:07.743Z,19.13
2023-03-02T13:12:40.128Z,20.23
2023-03-02T13:15:19.158Z,19.90
2023-03-02T13:17:58.068Z,20.70
2023-03-02T13:20:31.789Z,18.20
2023-03-02T13:23:02.230Z,19.50
2023-03-02T13:25:34.634Z,18.85
2023-03-02T13:28:08.005Z,18.17
2023-03-02T13:30:47.893Z,18.17
2023-03-02T13:33:27.151Z,16.35
2023-03-02T13:35:58.127Z,16.33
2023-03-02T13:38:34.101Z,17.08
2023-03-02T13:41:04.596Z,17.70
2023-03-02T13:43:41.207Z,18.08
2023-03-02T13:46:31.857Z,15.43
2023-03-02T13:49:11.286Z,15.43
2023-03-02T13:54:25.339Z,15.98
2023-03-02T13:56:56.469Z,17.15
2023-03-02T13:59:26.970Z,17.40
2023-03-02T14:01:57.623Z,15.52
2023-03-02T14:04:30.731Z,15.35
2023-03-02T14:07:01.205Z,14.30
2023-03-02T14:09:31.595Z,13.93
2023-03-02T14:12:02.196Z,13.45
2023-03-02T14:14:44.495Z,14.60
2023-03-02T14:17:18.325Z,11.88
2023-03-02T14:19:53.081Z,13.68
2023-03-02T14:22:23.967Z,12.32
2023-03-02T14:24:54.863Z,11.88
2023-03-02T14:27:30.253Z,14.13
2023-03-02T14:30:01.229Z,11.82
2023-03-02T14:32:31.993Z,13.27
2023-03-02T14:35:11.481Z,12.90
2023-03-02T14:37:46.801Z,11.97
2023-03-02T14:40:27.556Z,15.60
2023-03-02T14:42:58.021Z,11.32
2023-03-02T14:45:30.557Z,13.45
2023-03-02T14:48:03.596Z,11.95
2023-03-02T14:50:42.317Z,11.98
2023-03-02T14:53:19.067Z,11.32
2023-03-02T14:55:50.163Z,14.05
2023-03-02T14:58:32.811Z,13.45
2023-03-02T15:01:03.670Z,11.77
2023-03-02T15:03:34.259Z,12.25
2023-03-02T15:08:39.683Z,11.43
2023-03-02T15:11:10.058Z,10.18
2023-03-02T15:13:40.520Z,10.10
2023-03-02T15:16:13.758Z,11.38
2023-03-02T15:18:44.227Z,11.70
2023-03-02T15:21:21.386Z,11.85
2023-03-02T15:23:52.296Z,13.05
2023-03-02T15:26:22.705Z,15.00
2023-03-02T15:28:54.234Z,31.60
2023-03-02T15:31:24.620Z,11.93
2023-03-02T15:33:55.364Z,15.45
2023-03-02T15:36:28.591Z,12.38
2023-03-02T15:38:59.017Z,14.55
2023-03-02T15:41:29.572Z,12.30
2023-03-02T15:46:30.200Z,14.03
2023-03-02T15:49:00.578Z,13.30
2023-03-02T15:51:33.496Z,16.92
2023-03-02T15:54:03.920Z,15.38
2023-03-02T15:56:43.781Z,16.27
2023-03-02T15:59:14.958Z,15.35
2023-03-02T16:01:45.381Z,20.85
2023-03-02T16:04:15.836Z,18.85
2023-03-02T16:06:48.875Z,16.92
2023-03-02T16:09:19.309Z,18.10
2023-03-02T16:11:51.379Z,21.33
2023-03-02T16:14:22.614Z,19.65
2023-03-02T16:16:53.392Z,18.00
2023-03-02T16:19:23.957Z,22.80
2023-03-02T16:21:56.993Z,20.70
2023-03-02T16:24:28.155Z,23.73
2023-03-02T16:29:31.953Z,32.25
2023-03-02T16:32:02.398Z,21.30
2023-03-02T16:34:32.938Z,19.58
2023-03-02T16:37:06.001Z,20.73
2023-03-02T16:39:37.008Z,22.92
2023-03-02T16:42:08.029Z,20.88
2023-03-02T16:47:09.070Z,23.40
2023-03-02T16:49:39.561Z,21.98
2023-03-02T16:52:12.573Z,19.95
2023-03-02T16:54:42.922Z,22.55
2023-03-02T16:57:13.474Z,21.38
2023-03-02T16:59:43.946Z,21.35
2023-03-02T17:02:15.804Z,23.30
2023-03-02T17:04:46.288Z,27.15
2023-03-02T17:07:19.458Z,23.02
2023-03-02T17:09:49.775Z,25.55
2023-03-02T17:12:20.169Z,22.67
2023-03-02T17:14:50.583Z,23.33
2023-03-02T17:17:21.286Z,21.05
2023-03-02T17:19:51.771Z,25.15
2023-03-02T17:22:24.898Z,23.77
2023-03-02T17:24:55.207Z,23.80
2023-03-02T17:27:27.376Z,22.20
2023-03-02T17:29:58.001Z,24.05
2023-03-02T17:32:28.514Z,22.58
2023-03-02T17:34:58.950Z,24.08
2023-03-02T17:37:32.353Z,25.98
2023-03-02T17:40:02.753Z,29.30
2023-03-02T17:42:33.625Z,25.80
2023-03-02T17:45:04.145Z,32.83
2023-03-02T17:47:34.640Z,26.52
2023-03-02T17:50:07.577Z,30.90
2023-03-02T17:52:40.645Z,25.83
2023-03-02T17:55:13.818Z,26.08
2023-03-02T17:57:44.379Z,30.27
2023-03-02T18:00:19.771Z,29.88
2023-03-02T18:02:50.425Z,26.73
2023-03-02T18:05:22.319Z,26.38
2023-03-02T18:07:55.396Z,25.17
2023-03-02T18:10:25.874Z,20.13
2023-03-02T18:12:57.005Z,25.10
2023-03-02T18:17:59.779Z,24.02
2023-03-02T18:20:30.292Z,23.63
2023-03-02T18:23:03.877Z,23.00
2023-03-02T18:25:34.446Z,23.10
2023-03-02T18:28:04.847Z,21.48
2023-03-02T18:30:35.365Z,24.13
2023-03-02T18:33:05.852Z,23.08
2023-03-02T18:35:38.236Z,23.30
2023-03-02T18:38:11.277Z,25.03
2023-03-02T18:40:41.643Z,26.17
2023-03-02T18:43:12.112Z,30.00
2023-03-02T18:45:42.516Z,27.15
2023-03-02T18:48:13.079Z,30.50
2023-03-02T18:50:43.810Z,31.63
2023-03-02T18:53:16.869Z,26.70
2023-03-02T18:55:47.288Z,29.17
2023-03-02T18:58:22.225Z,29.60
2023-03-02T19:00:52.567Z,32.20
2023-03-02T19:03:25.000Z,25.73
2023-03-02T19:05:58.056Z,29.50
2023-03-02T19:08:31.534Z,25.20
2023-03-02T19:11:01.924Z,25.13
2023-03-02T19:13:32.880Z,29.88
2023-03-02T19:16:04.385Z,32.60
2023-03-02T19:18:34.970Z,33.50
2023-03-02T19:21:05.437Z,30.83
2023-03-02T19:23:38.633Z,28.80
2023-03-02T19:26:08.916Z,24.43
2023-03-02T19:28:40.115Z,25.87
2023-03-02T19:33:45.743Z,27.10
2023-03-02T19:36:16.416Z,26.97
2023-03-02T19:38:49.453Z,30.00
2023-03-02T19:41:22.560Z,30.43
2023-03-02T19:43:53.298Z,26.33
2023-03-02T19:46:23.772Z,32.72
2023-03-02T19:48:54.105Z,26.20
2023-03-02T19:51:24.473Z,30.13
2023-03-02T19:53:58.027Z,26.33
2023-03-02T19:56:33.033Z,27.20
2023-03-02T19:59:03.573Z,27.10
2023-03-02T20:01:34.118Z,31.33
2023-03-02T20:04:04.465Z,31.35
2023-03-02T20:06:37.545Z,29.80
2023-03-02T20:09:13.073Z,30.57
2023-03-02T20:11:43.770Z,38.47
2023-03-02T20:14:27.638Z,39.85
2023-03-02T20:17:03.581Z,34.50
2023-03-02T20:19:36.042Z,35.25
2023-03-02T20:22:07.024Z,39.80
2023-03-02T20:24:40.905Z,34.72
2023-03-02T20:27:12.618Z,32.77
2023-03-02T20:29:45.361Z,37.50
2023-03-02T20:32:17.117Z,34.83
2023-03-02T20:34:47.667Z,39.13
2023-03-02T20:37:18.781Z,37.88
2023-03-02T20:39:53.271Z,33.92
2023-03-02T20:42:24.012Z,36.63
2023-03-02T20:44:56.488Z,39.88
2023-03-02T20:47:26.871Z,35.43
2023-03-02T20:50:00.528Z,33.23
2023-03-02T20:52:31.182Z,37.20
2023-03-02T20:55:04.758Z,33.85
2023-03-02T20:57:35.284Z,31.17
2023-03-02T21:00:08.043Z,32.13
2023-03-02T21:02:38.621Z,28.90
2023-03-02T21:05:09.984Z,33.15
2023-03-02T21:10:19.961Z,37.33
2023-03-02T21:12:51.271Z,29.20
2023-03-02T21:15:23.939Z,32.83
2023-03-02T21:17:54.751Z,30.97
2023-03-02T21:20:26.148Z,29.23
2023-03-02T21:25:30.965Z,33.63
2023-03-02T21:28:02.033Z,31.53
2023-03-02T21:30:35.089Z,29.23
2023-03-02T21:33:06.365Z,32.33
2023-03-02T21:38:07.891Z,29.50
2023-03-02T21:40:46.105Z,39.83
2023-03-02T21:43:18.510Z,41.40
2023-03-02T21:45:48.986Z,30.70
2023-03-02T21:48:22.833Z,32.00
2023-03-02T21:50:53.499Z,32.87
2023-03-02T21:53:24.357Z,32.70
2023-03-02T21:55:58.067Z,33.75
2023-03-02T21:58:28.577Z,38.03
2023-03-02T22:00:59.089Z,38.60
2023-03-02T22:03:29.833Z,30.55
2023-03-02T22:06:00.280Z,30.60
2023-03-02T22:08:31.619Z,31.17
2023-03-02T22:11:05.303Z,33.17
2023-03-02T22:13:37.494Z,33.80
2023-03-02T22:16:17.147Z,38.20
2023-03-02T22:18:50.182Z,31.97
2023-03-02T22:21:30.311Z,37.17
2023-03-02T22:24:23.069Z,39.80
2023-03-02T22:27:01.630Z,39.07
2023-03-02T22:29:36.130Z,40.10
2023-03-02T22:32:18.300Z,42.37
2023-03-02T22:34:52.408Z,40.77
2023-03-02T22:37:24.865Z,39.80
2023-03-02T22:39:59.921Z,38.93
2023-03-02T22:42:34.055Z,34.83
2023-03-02T22:45:15.804Z,38.67
2023-03-02T22:47:51.563Z,37.50
2023-03-02T22:50:25.886Z,35.53
2023-03-02T22:52:58.621Z,35.50
2023-03-02T22:55:42.403Z,33.47
2023-03-02T22:58:34.059Z,43.30
2023-03-02T23:03:44.300Z,34.78
2023-03-02T23:06:32.037Z,33.57
2023-03-02T23:09:05.395Z,33.67
2023-03-02T23:11:41.037Z,33.43
2023-03-02T23:14:26.465Z,30.23
2023-03-02T23:17:01.478Z,30.87
2023-03-02T23:19:34.280Z,30.47
2023-03-02T23:22:04.686Z,30.73
2023-03-02T23:24:35.025Z,40.30
2023-03-02T23:27:06.221Z,33.23
2023-03-02T23:29:42.500Z,28.05
2023-03-02T23:32:13.174Z,31.77
2023-03-02T23:34:44.838Z,30.80
2023-03-02T23:37:15.231Z,34.93
2023-03-02T23:39:46.223Z,31.43
2023-03-02T23:42:16.654Z,34.72
2023-03-02T23:44:49.543Z,32.13
2023-03-02T23:47:19.975Z,37.00
2023-03-02T23:49:50.225Z,42.73
2023-03-02T23:52:20.504Z,41.27
2023-03-02T23:54:51.506Z,42.87
2023-03-02T23:57:21.822Z,39.88
2023-03-02T23:59:54.760Z,36.93
